sensor_id;sensor_type;location;lat;lon;timestamp;P1;durP1;ratioP1;P2;durP2;ratioP2
65033;SDS011;51601;51.356;12.458;2023-07-08T00:02:35;8.05;;;4.15;;
65033;SDS011;51601;51.356;12.458;2023-07-08T00:06:56;9.65;;;4.55;;
65033;SDS011;51601;51.356;12.458;2023-07-08T00:11:17;9.33;;;4.63;;
65033;SDS011;51601;51.356;12.458;2023-07-08T00:15:36;10.38;;;4.53;;
65033;SDS011;51601;51.356;12.458;2023-07-08T00:19:56;7.57;;;4.35;;
65033;SDS011;51601;51.356;12.458;2023-07-08T00:24:14;8.40;;;4.53;;
65033;SDS011;51601;51.356;12.458;2023-07-08T00:28:34;9.40;;;4.60;;
65033;SDS011;51601;51.356;12.458;2023-07-08T00:32:55;8.07;;;4.55;;
65033;SDS011;51601;51.356;12.458;2023-07-08T00:37:17;8.70;;;4.63;;
65033;SDS011;51601;51.356;12.458;2023-07-08T00:41:36;8.73;;;4.65;;
65033;SDS011;51601;51.356;12.458;2023-07-08T00:46:09;8.32;;;4.63;;
65033;SDS011;51601;51.356;12.458;2023-07-08T00:50:41;8.55;;;4.65;;
65033;SDS011;51601;51.356;12.458;2023-07-08T00:55:09;10.00;;;4.70;;
65033;SDS011;51601;51.356;12.458;2023-07-08T00:59:32;7.80;;;4.55;;
65033;SDS011;51601;51.356;12.458;2023-07-08T01:03:59;11.07;;;4.30;;
65033;SDS011;51601;51.356;12.458;2023-07-08T01:08:22;9.87;;;4.70;;
65033;SDS011;51601;51.356;12.458;2023-07-08T01:12:57;9.68;;;4.18;;
65033;SDS011;51601;51.356;12.458;2023-07-08T01:17:17;8.30;;;4.55;;
65033;SDS011;51601;51.356;12.458;2023-07-08T01:21:36;8.70;;;4.77;;
65033;SDS011;51601;51.356;12.458;2023-07-08T01:25:58;11.07;;;5.07;;
65033;SDS011;51601;51.356;12.458;2023-07-08T01:30:18;8.60;;;4.60;;
65033;SDS011;51601;51.356;12.458;2023-07-08T01:34:42;7.55;;;4.50;;
65033;SDS011;51601;51.356;12.458;2023-07-08T01:39:18;8.90;;;4.70;;
65033;SDS011;51601;51.356;12.458;2023-07-08T01:43:50;8.05;;;4.22;;
65033;SDS011;51601;51.356;12.458;2023-07-08T01:48:10;8.35;;;4.20;;
65033;SDS011;51601;51.356;12.458;2023-07-08T01:52:33;10.03;;;5.00;;
65033;SDS011;51601;51.356;12.458;2023-07-08T01:56:54;11.73;;;4.90;;
65033;SDS011;51601;51.356;12.458;2023-07-08T02:01:14;8.35;;;4.50;;
65033;SDS011;51601;51.356;12.458;2023-07-08T02:05:33;9.47;;;5.03;;
65033;SDS011;51601;51.356;12.458;2023-07-08T02:09:51;11.80;;;4.90;;
65033;SDS011;51601;51.356;12.458;2023-07-08T02:14:10;10.60;;;4.70;;
65033;SDS011;51601;51.356;12.458;2023-07-08T02:18:29;9.68;;;4.57;;
65033;SDS011;51601;51.356;12.458;2023-07-08T02:22:49;8.40;;;4.83;;
65033;SDS011;51601;51.356;12.458;2023-07-08T02:27:07;9.20;;;4.93;;
65033;SDS011;51601;51.356;12.458;2023-07-08T02:31:25;8.85;;;4.90;;
65033;SDS011;51601;51.356;12.458;2023-07-08T02:35:44;10.47;;;4.77;;
65033;SDS011;51601;51.356;12.458;2023-07-08T02:40:01;9.52;;;4.90;;
65033;SDS011;51601;51.356;12.458;2023-07-08T02:44:19;9.50;;;5.40;;
65033;SDS011;51601;51.356;12.458;2023-07-08T02:48:37;8.90;;;5.03;;
65033;SDS011;51601;51.356;12.458;2023-07-08T02:52:57;10.65;;;5.20;;
65033;SDS011;51601;51.356;12.458;2023-07-08T02:57:16;9.70;;;5.53;;
65033;SDS011;51601;51.356;12.458;2023-07-08T03:01:34;7.97;;;5.03;;
65033;SDS011;51601;51.356;12.458;2023-07-08T03:06:00;9.50;;;4.97;;
65033;SDS011;51601;51.356;12.458;2023-07-08T03:10:21;11.70;;;5.70;;
65033;SDS011;51601;51.356;12.458;2023-07-08T03:14:41;9.73;;;5.30;;
65033;SDS011;51601;51.356;12.458;2023-07-08T03:19:02;9.47;;;5.03;;
65033;SDS011;51601;51.356;12.458;2023-07-08T03:23:20;10.00;;;5.65;;
65033;SDS011;51601;51.356;12.458;2023-07-08T03:27:39;10.68;;;5.70;;
65033;SDS011;51601;51.356;12.458;2023-07-08T03:31:59;9.30;;;5.20;;
65033;SDS011;51601;51.356;12.458;2023-07-08T03:36:17;9.40;;;5.25;;
65033;SDS011;51601;51.356;12.458;2023-07-08T03:40:44;9.18;;;5.18;;
65033;SDS011;51601;51.356;12.458;2023-07-08T03:45:04;8.68;;;5.22;;
65033;SDS011;51601;51.356;12.458;2023-07-08T03:49:30;11.47;;;5.10;;
65033;SDS011;51601;51.356;12.458;2023-07-08T03:53:48;11.55;;;5.50;;
65033;SDS011;51601;51.356;12.458;2023-07-08T03:58:06;8.57;;;5.28;;
65033;SDS011;51601;51.356;12.458;2023-07-08T04:02:32;8.90;;;5.37;;
65033;SDS011;51601;51.356;12.458;2023-07-08T04:06:51;8.73;;;5.00;;
65033;SDS011;51601;51.356;12.458;2023-07-08T04:11:09;8.50;;;5.35;;
65033;SDS011;51601;51.356;12.458;2023-07-08T04:15:30;8.67;;;5.20;;
65033;SDS011;51601;51.356;12.458;2023-07-08T04:19:50;9.35;;;4.90;;
65033;SDS011;51601;51.356;12.458;2023-07-08T04:24:07;9.45;;;5.22;;
65033;SDS011;51601;51.356;12.458;2023-07-08T04:28:28;8.02;;;4.80;;
65033;SDS011;51601;51.356;12.458;2023-07-08T04:32:46;8.13;;;5.00;;
65033;SDS011;51601;51.356;12.458;2023-07-08T04:37:05;8.82;;;5.00;;
65033;SDS011;51601;51.356;12.458;2023-07-08T04:41:22;9.55;;;5.10;;
65033;SDS011;51601;51.356;12.458;2023-07-08T04:45:40;8.93;;;4.87;;
65033;SDS011;51601;51.356;12.458;2023-07-08T04:50:01;8.52;;;5.10;;
65033;SDS011;51601;51.356;12.458;2023-07-08T04:54:20;10.85;;;5.10;;
65033;SDS011;51601;51.356;12.458;2023-07-08T04:58:37;9.30;;;5.00;;
65033;SDS011;51601;51.356;12.458;2023-07-08T05:02:55;9.95;;;4.70;;
65033;SDS011;51601;51.356;12.458;2023-07-08T05:07:13;10.10;;;4.90;;
65033;SDS011;51601;51.356;12.458;2023-07-08T05:11:36;9.30;;;4.75;;
65033;SDS011;51601;51.356;12.458;2023-07-08T05:15:52;8.87;;;4.60;;
65033;SDS011;51601;51.356;12.458;2023-07-08T05:20:11;7.90;;;4.63;;
65033;SDS011;51601;51.356;12.458;2023-07-08T05:24:31;8.30;;;4.32;;
65033;SDS011;51601;51.356;12.458;2023-07-08T05:28:51;8.20;;;4.60;;
65033;SDS011;51601;51.356;12.458;2023-07-08T05:33:11;8.98;;;4.60;;
65033;SDS011;51601;51.356;12.458;2023-07-08T05:37:29;9.10;;;4.30;;
65033;SDS011;51601;51.356;12.458;2023-07-08T05:41:47;8.27;;;4.40;;
65033;SDS011;51601;51.356;12.458;2023-07-08T05:46:07;9.00;;;4.30;;
65033;SDS011;51601;51.356;12.458;2023-07-08T05:50:29;8.20;;;4.55;;
65033;SDS011;51601;51.356;12.458;2023-07-08T05:54:47;8.35;;;4.38;;
65033;SDS011;51601;51.356;12.458;2023-07-08T05:59:05;8.20;;;4.00;;
65033;SDS011;51601;51.356;12.458;2023-07-08T06:03:25;8.48;;;4.13;;
65033;SDS011;51601;51.356;12.458;2023-07-08T06:07:44;6.82;;;3.75;;
65033;SDS011;51601;51.356;12.458;2023-07-08T06:12:03;8.17;;;4.37;;
65033;SDS011;51601;51.356;12.458;2023-07-08T06:16:20;7.45;;;4.22;;
65033;SDS011;51601;51.356;12.458;2023-07-08T06:20:50;8.10;;;4.47;;
65033;SDS011;51601;51.356;12.458;2023-07-08T06:25:09;8.03;;;4.10;;
65033;SDS011;51601;51.356;12.458;2023-07-08T06:29:27;7.30;;;4.05;;
65033;SDS011;51601;51.356;12.458;2023-07-08T06:33:45;8.20;;;4.07;;
65033;SDS011;51601;51.356;12.458;2023-07-08T06:38:04;7.13;;;3.97;;
65033;SDS011;51601;51.356;12.458;2023-07-08T06:42:24;7.10;;;3.90;;
65033;SDS011;51601;51.356;12.458;2023-07-08T06:46:51;7.20;;;4.05;;
65033;SDS011;51601;51.356;12.458;2023-07-08T06:51:09;8.38;;;3.90;;
65033;SDS011;51601;51.356;12.458;2023-07-08T06:55:29;8.07;;;3.87;;
65033;SDS011;51601;51.356;12.458;2023-07-08T06:59:46;7.65;;;3.72;;
65033;SDS011;51601;51.356;12.458;2023-07-08T07:04:04;8.75;;;3.70;;
65033;SDS011;51601;51.356;12.458;2023-07-08T07:08:22;8.23;;;4.00;;
65033;SDS011;51601;51.356;12.458;2023-07-08T07:12:41;7.88;;;3.80;;
65033;SDS011;51601;51.356;12.458;2023-07-08T07:16:58;7.75;;;3.80;;
65033;SDS011;51601;51.356;12.458;2023-07-08T07:21:25;9.60;;;4.05;;
65033;SDS011;51601;51.356;12.458;2023-07-08T07:25:44;6.97;;;3.73;;
65033;SDS011;51601;51.356;12.458;2023-07-08T07:30:06;7.65;;;3.60;;
65033;SDS011;51601;51.356;12.458;2023-07-08T07:34:28;6.95;;;3.53;;
65033;SDS011;51601;51.356;12.458;2023-07-08T07:38:47;7.93;;;3.70;;
65033;SDS011;51601;51.356;12.458;2023-07-08T07:43:05;9.32;;;4.00;;
65033;SDS011;51601;51.356;12.458;2023-07-08T07:47:24;6.70;;;3.58;;
65033;SDS011;51601;51.356;12.458;2023-07-08T07:51:47;8.37;;;4.00;;
65033;SDS011;51601;51.356;12.458;2023-07-08T07:56:05;6.35;;;3.67;;
65033;SDS011;51601;51.356;12.458;2023-07-08T08:00:23;7.35;;;3.65;;
65033;SDS011;51601;51.356;12.458;2023-07-08T08:04:42;8.88;;;3.83;;
65033;SDS011;51601;51.356;12.458;2023-07-08T08:08:59;7.50;;;3.73;;
65033;SDS011;51601;51.356;12.458;2023-07-08T08:13:17;9.00;;;3.80;;
65033;SDS011;51601;51.356;12.458;2023-07-08T08:17:35;7.68;;;3.67;;
65033;SDS011;51601;51.356;12.458;2023-07-08T08:21:55;7.70;;;4.00;;
65033;SDS011;51601;51.356;12.458;2023-07-08T08:26:11;6.18;;;3.42;;
65033;SDS011;51601;51.356;12.458;2023-07-08T08:30:31;6.70;;;3.63;;
65033;SDS011;51601;51.356;12.458;2023-07-08T08:34:51;6.90;;;3.50;;
65033;SDS011;51601;51.356;12.458;2023-07-08T08:39:10;6.90;;;3.40;;
65033;SDS011;51601;51.356;12.458;2023-07-08T08:43:29;6.05;;;3.53;;
65033;SDS011;51601;51.356;12.458;2023-07-08T08:47:55;8.50;;;3.90;;
65033;SDS011;51601;51.356;12.458;2023-07-08T08:52:18;13.63;;;3.60;;
65033;SDS011;51601;51.356;12.458;2023-07-08T08:56:38;7.97;;;3.63;;
65033;SDS011;51601;51.356;12.458;2023-07-08T09:01:04;7.78;;;3.55;;
65033;SDS011;51601;51.356;12.458;2023-07-08T09:05:24;8.63;;;4.00;;
65033;SDS011;51601;51.356;12.458;2023-07-08T09:09:45;7.03;;;3.80;;
65033;SDS011;51601;51.356;12.458;2023-07-08T09:14:17;7.53;;;3.60;;
65033;SDS011;51601;51.356;12.458;2023-07-08T09:18:41;7.83;;;3.80;;
65033;SDS011;51601;51.356;12.458;2023-07-08T09:23:11;8.95;;;3.90;;
65033;SDS011;51601;51.356;12.458;2023-07-08T09:27:38;7.63;;;4.35;;
65033;SDS011;51601;51.356;12.458;2023-07-08T09:31:58;8.52;;;3.80;;
65033;SDS011;51601;51.356;12.458;2023-07-08T09:36:17;7.53;;;3.50;;
65033;SDS011;51601;51.356;12.458;2023-07-08T09:40:38;7.78;;;3.80;;
65033;SDS011;51601;51.356;12.458;2023-07-08T09:44:57;6.93;;;3.72;;
65033;SDS011;51601;51.356;12.458;2023-07-08T09:49:23;6.93;;;3.80;;
65033;SDS011;51601;51.356;12.458;2023-07-08T09:53:45;6.85;;;3.80;;
65033;SDS011;51601;51.356;12.458;2023-07-08T09:58:03;7.20;;;4.00;;
65033;SDS011;51601;51.356;12.458;2023-07-08T10:02:24;8.20;;;3.70;;
65033;SDS011;51601;51.356;12.458;2023-07-08T10:06:46;6.88;;;4.00;;
65033;SDS011;51601;51.356;12.458;2023-07-08T10:11:10;6.68;;;3.72;;
65033;SDS011;51601;51.356;12.458;2023-07-08T10:15:37;7.10;;;4.00;;
65033;SDS011;51601;51.356;12.458;2023-07-08T10:19:57;7.07;;;3.87;;
65033;SDS011;51601;51.356;12.458;2023-07-08T10:24:20;6.70;;;3.80;;
65033;SDS011;51601;51.356;12.458;2023-07-08T10:28:55;7.13;;;4.03;;
65033;SDS011;51601;51.356;12.458;2023-07-08T10:33:33;7.00;;;3.93;;
65033;SDS011;51601;51.356;12.458;2023-07-08T10:38:18;8.20;;;4.15;;
65033;SDS011;51601;51.356;12.458;2023-07-08T10:42:52;7.07;;;3.70;;
65033;SDS011;51601;51.356;12.458;2023-07-08T10:47:22;7.93;;;3.87;;
65033;SDS011;51601;51.356;12.458;2023-07-08T10:51:53;6.57;;;3.60;;
65033;SDS011;51601;51.356;12.458;2023-07-08T10:56:21;7.47;;;3.75;;
65033;SDS011;51601;51.356;12.458;2023-07-08T11:00:48;6.97;;;3.70;;
65033;SDS011;51601;51.356;12.458;2023-07-08T11:05:19;6.30;;;3.50;;
65033;SDS011;51601;51.356;12.458;2023-07-08T11:09:48;6.85;;;3.90;;
65033;SDS011;51601;51.356;12.458;2023-07-08T11:14:12;6.88;;;3.63;;
65033;SDS011;51601;51.356;12.458;2023-07-08T11:18:36;7.67;;;3.87;;
65033;SDS011;51601;51.356;12.458;2023-07-08T11:23:00;7.00;;;3.75;;
65033;SDS011;51601;51.356;12.458;2023-07-08T11:27:27;6.65;;;3.95;;
65033;SDS011;51601;51.356;12.458;2023-07-08T11:31:51;6.40;;;3.20;;
65033;SDS011;51601;51.356;12.458;2023-07-08T11:36:13;7.90;;;3.53;;
65033;SDS011;51601;51.356;12.458;2023-07-08T11:40:36;6.50;;;3.30;;
65033;SDS011;51601;51.356;12.458;2023-07-08T11:45:07;7.95;;;4.13;;
65033;SDS011;51601;51.356;12.458;2023-07-08T11:49:34;5.97;;;3.30;;
65033;SDS011;51601;51.356;12.458;2023-07-08T11:53:59;7.22;;;3.85;;
65033;SDS011;51601;51.356;12.458;2023-07-08T11:58:29;6.90;;;3.47;;
65033;SDS011;51601;51.356;12.458;2023-07-08T12:02:51;7.37;;;3.63;;
65033;SDS011;51601;51.356;12.458;2023-07-08T12:07:12;6.70;;;3.15;;
65033;SDS011;51601;51.356;12.458;2023-07-08T12:11:36;7.25;;;3.58;;
65033;SDS011;51601;51.356;12.458;2023-07-08T12:15:59;7.33;;;3.53;;
65033;SDS011;51601;51.356;12.458;2023-07-08T12:20:18;9.18;;;3.60;;
65033;SDS011;51601;51.356;12.458;2023-07-08T12:24:41;6.97;;;3.40;;
65033;SDS011;51601;51.356;12.458;2023-07-08T12:29:00;7.05;;;4.03;;
65033;SDS011;51601;51.356;12.458;2023-07-08T12:33:22;6.83;;;3.40;;
65033;SDS011;51601;51.356;12.458;2023-07-08T12:37:45;6.88;;;3.50;;
65033;SDS011;51601;51.356;12.458;2023-07-08T12:42:07;6.45;;;3.35;;
65033;SDS011;51601;51.356;12.458;2023-07-08T12:46:28;7.50;;;3.60;;
65033;SDS011;51601;51.356;12.458;2023-07-08T12:50:48;8.95;;;3.55;;
65033;SDS011;51601;51.356;12.458;2023-07-08T12:55:07;7.20;;;3.60;;
65033;SDS011;51601;51.356;12.458;2023-07-08T12:59:27;6.90;;;3.40;;
65033;SDS011;51601;51.356;12.458;2023-07-08T13:03:47;7.22;;;3.45;;
65033;SDS011;51601;51.356;12.458;2023-07-08T13:08:10;6.78;;;3.72;;
65033;SDS011;51601;51.356;12.458;2023-07-08T13:12:31;6.43;;;3.08;;
65033;SDS011;51601;51.356;12.458;2023-07-08T13:16:55;5.93;;;2.47;;
65033;SDS011;51601;51.356;12.458;2023-07-08T13:21:14;8.82;;;3.80;;
65033;SDS011;51601;51.356;12.458;2023-07-08T13:25:36;8.20;;;3.50;;
65033;SDS011;51601;51.356;12.458;2023-07-08T13:29:56;7.77;;;3.80;;
65033;SDS011;51601;51.356;12.458;2023-07-08T13:34:34;6.82;;;3.55;;
65033;SDS011;51601;51.356;12.458;2023-07-08T13:38:54;7.68;;;4.00;;
65033;SDS011;51601;51.356;12.458;2023-07-08T13:43:14;8.97;;;3.97;;
65033;SDS011;51601;51.356;12.458;2023-07-08T13:47:35;8.98;;;3.83;;
65033;SDS011;51601;51.356;12.458;2023-07-08T13:52:03;8.00;;;3.92;;
65033;SDS011;51601;51.356;12.458;2023-07-08T13:56:25;8.80;;;3.90;;
65033;SDS011;51601;51.356;12.458;2023-07-08T14:00:44;8.20;;;3.43;;
65033;SDS011;51601;51.356;12.458;2023-07-08T14:05:03;6.40;;;3.13;;
65033;SDS011;51601;51.356;12.458;2023-07-08T14:09:24;6.28;;;3.35;;
65033;SDS011;51601;51.356;12.458;2023-07-08T14:13:43;6.83;;;3.70;;
65033;SDS011;51601;51.356;12.458;2023-07-08T14:18:00;7.68;;;3.22;;
65033;SDS011;51601;51.356;12.458;2023-07-08T14:22:20;8.52;;;4.10;;
65033;SDS011;51601;51.356;12.458;2023-07-08T14:26:42;7.07;;;3.60;;
65033;SDS011;51601;51.356;12.458;2023-07-08T14:31:01;6.78;;;3.47;;
65033;SDS011;51601;51.356;12.458;2023-07-08T14:35:23;7.60;;;4.00;;
65033;SDS011;51601;51.356;12.458;2023-07-08T14:39:42;8.85;;;4.50;;
65033;SDS011;51601;51.356;12.458;2023-07-08T14:44:00;8.03;;;3.70;;
65033;SDS011;51601;51.356;12.458;2023-07-08T14:48:20;7.57;;;3.70;;
65033;SDS011;51601;51.356;12.458;2023-07-08T14:52:42;6.93;;;3.75;;
65033;SDS011;51601;51.356;12.458;2023-07-08T14:57:00;6.63;;;3.60;;
65033;SDS011;51601;51.356;12.458;2023-07-08T15:01:22;6.75;;;3.50;;
65033;SDS011;51601;51.356;12.458;2023-07-08T15:05:44;8.00;;;3.78;;
65033;SDS011;51601;51.356;12.458;2023-07-08T15:10:01;7.53;;;3.90;;
65033;SDS011;51601;51.356;12.458;2023-07-08T15:14:20;7.43;;;3.65;;
65033;SDS011;51601;51.356;12.458;2023-07-08T15:18:40;6.88;;;3.47;;
65033;SDS011;51601;51.356;12.458;2023-07-08T15:22:59;7.93;;;3.60;;
65033;SDS011;51601;51.356;12.458;2023-07-08T15:27:17;7.63;;;3.80;;
65033;SDS011;51601;51.356;12.458;2023-07-08T15:31:37;7.00;;;3.50;;
65033;SDS011;51601;51.356;12.458;2023-07-08T15:35:55;7.03;;;3.80;;
65033;SDS011;51601;51.356;12.458;2023-07-08T15:40:15;7.93;;;3.70;;
65033;SDS011;51601;51.356;12.458;2023-07-08T15:44:34;6.82;;;3.80;;
65033;SDS011;51601;51.356;12.458;2023-07-08T15:48:52;7.10;;;3.70;;
65033;SDS011;51601;51.356;12.458;2023-07-08T15:53:10;7.90;;;3.83;;
65033;SDS011;51601;51.356;12.458;2023-07-08T15:57:34;7.22;;;4.00;;
65033;SDS011;51601;51.356;12.458;2023-07-08T16:02:00;8.63;;;3.85;;
65033;SDS011;51601;51.356;12.458;2023-07-08T16:06:29;7.50;;;3.25;;
65033;SDS011;51601;51.356;12.458;2023-07-08T16:10:49;8.73;;;3.90;;
65033;SDS011;51601;51.356;12.458;2023-07-08T16:15:13;7.70;;;3.53;;
65033;SDS011;51601;51.356;12.458;2023-07-08T16:19:33;7.85;;;3.70;;
65033;SDS011;51601;51.356;12.458;2023-07-08T16:23:51;9.97;;;4.30;;
65033;SDS011;51601;51.356;12.458;2023-07-08T16:28:10;7.82;;;3.90;;
65033;SDS011;51601;51.356;12.458;2023-07-08T16:32:34;7.22;;;3.90;;
65033;SDS011;51601;51.356;12.458;2023-07-08T16:36:51;7.57;;;3.97;;
65033;SDS011;51601;51.356;12.458;2023-07-08T16:41:10;6.80;;;3.72;;
65033;SDS011;51601;51.356;12.458;2023-07-08T16:45:30;7.60;;;4.00;;
65033;SDS011;51601;51.356;12.458;2023-07-08T16:49:50;8.55;;;3.90;;
65033;SDS011;51601;51.356;12.458;2023-07-08T16:54:10;8.37;;;4.00;;
65033;SDS011;51601;51.356;12.458;2023-07-08T16:58:30;7.72;;;4.10;;
65033;SDS011;51601;51.356;12.458;2023-07-08T17:02:48;7.30;;;3.92;;
65033;SDS011;51601;51.356;12.458;2023-07-08T17:07:11;7.60;;;3.90;;
65033;SDS011;51601;51.356;12.458;2023-07-08T17:11:31;8.27;;;4.30;;
65033;SDS011;51601;51.356;12.458;2023-07-08T17:15:49;7.60;;;3.60;;
65033;SDS011;51601;51.356;12.458;2023-07-08T17:20:14;8.23;;;4.27;;
65033;SDS011;51601;51.356;12.458;2023-07-08T17:24:35;7.72;;;4.10;;
65033;SDS011;51601;51.356;12.458;2023-07-08T17:28:52;6.85;;;4.00;;
65033;SDS011;51601;51.356;12.458;2023-07-08T17:33:12;9.02;;;3.92;;
65033;SDS011;51601;51.356;12.458;2023-07-08T17:37:31;7.93;;;3.97;;
65033;SDS011;51601;51.356;12.458;2023-07-08T17:41:51;7.57;;;4.15;;
65033;SDS011;51601;51.356;12.458;2023-07-08T17:46:11;6.93;;;3.83;;
65033;SDS011;51601;51.356;12.458;2023-07-08T17:50:35;8.07;;;4.30;;
65033;SDS011;51601;51.356;12.458;2023-07-08T17:54:53;8.30;;;3.90;;
65033;SDS011;51601;51.356;12.458;2023-07-08T17:59:13;7.75;;;4.65;;
65033;SDS011;51601;51.356;12.458;2023-07-08T18:03:38;7.67;;;4.33;;
65033;SDS011;51601;51.356;12.458;2023-07-08T18:07:56;7.22;;;4.07;;
65033;SDS011;51601;51.356;12.458;2023-07-08T18:12:14;9.32;;;3.92;;
65033;SDS011;51601;51.356;12.458;2023-07-08T18:16:34;11.80;;;4.30;;
65033;SDS011;51601;51.356;12.458;2023-07-08T18:20:51;7.73;;;4.33;;
65033;SDS011;51601;51.356;12.458;2023-07-08T18:25:13;7.32;;;4.30;;
65033;SDS011;51601;51.356;12.458;2023-07-08T18:29:33;7.57;;;4.05;;
65033;SDS011;51601;51.356;12.458;2023-07-08T18:33:52;8.07;;;4.20;;
65033;SDS011;51601;51.356;12.458;2023-07-08T18:38:09;7.53;;;4.13;;
65033;SDS011;51601;51.356;12.458;2023-07-08T18:42:27;9.60;;;4.30;;
65033;SDS011;51601;51.356;12.458;2023-07-08T18:46:45;8.13;;;4.47;;
65033;SDS011;51601;51.356;12.458;2023-07-08T18:51:09;8.63;;;4.50;;
65033;SDS011;51601;51.356;12.458;2023-07-08T18:55:30;10.50;;;5.13;;
65033;SDS011;51601;51.356;12.458;2023-07-08T18:59:48;9.35;;;5.30;;
65033;SDS011;51601;51.356;12.458;2023-07-08T19:04:08;11.10;;;4.93;;
65033;SDS011;51601;51.356;12.458;2023-07-08T19:08:29;8.48;;;4.68;;
65033;SDS011;51601;51.356;12.458;2023-07-08T19:12:49;11.35;;;7.05;;
65033;SDS011;51601;51.356;12.458;2023-07-08T19:17:10;9.83;;;5.87;;
65033;SDS011;51601;51.356;12.458;2023-07-08T19:21:28;9.75;;;4.90;;
65033;SDS011;51601;51.356;12.458;2023-07-08T19:25:47;11.25;;;5.50;;
65033;SDS011;51601;51.356;12.458;2023-07-08T19:30:04;9.10;;;5.13;;
65033;SDS011;51601;51.356;12.458;2023-07-08T19:34:25;11.10;;;5.25;;
65033;SDS011;51601;51.356;12.458;2023-07-08T19:38:43;9.88;;;5.25;;
65033;SDS011;51601;51.356;12.458;2023-07-08T19:43:03;8.65;;;4.57;;
65033;SDS011;51601;51.356;12.458;2023-07-08T19:47:22;9.57;;;5.00;;
65033;SDS011;51601;51.356;12.458;2023-07-08T19:51:40;11.32;;;5.97;;
65033;SDS011;51601;51.356;12.458;2023-07-08T19:55:58;10.40;;;6.03;;
65033;SDS011;51601;51.356;12.458;2023-07-08T20:00:22;13.47;;;7.10;;
65033;SDS011;51601;51.356;12.458;2023-07-08T20:04:44;9.27;;;5.25;;
65033;SDS011;51601;51.356;12.458;2023-07-08T20:09:07;11.10;;;5.43;;
65033;SDS011;51601;51.356;12.458;2023-07-08T20:13:30;10.00;;;5.23;;
65033;SDS011;51601;51.356;12.458;2023-07-08T20:17:52;9.40;;;5.20;;
65033;SDS011;51601;51.356;12.458;2023-07-08T20:22:12;9.50;;;5.05;;
65033;SDS011;51601;51.356;12.458;2023-07-08T20:26:33;9.77;;;4.80;;
65033;SDS011;51601;51.356;12.458;2023-07-08T20:30:50;9.87;;;5.60;;
65033;SDS011;51601;51.356;12.458;2023-07-08T20:35:10;11.15;;;5.57;;
65033;SDS011;51601;51.356;12.458;2023-07-08T20:39:27;8.60;;;5.43;;
65033;SDS011;51601;51.356;12.458;2023-07-08T20:43:45;10.60;;;5.33;;
65033;SDS011;51601;51.356;12.458;2023-07-08T20:48:03;9.45;;;5.90;;
65033;SDS011;51601;51.356;12.458;2023-07-08T20:52:28;11.27;;;6.45;;
65033;SDS011;51601;51.356;12.458;2023-07-08T20:56:45;10.87;;;6.37;;
65033;SDS011;51601;51.356;12.458;2023-07-08T21:01:03;10.85;;;6.10;;
65033;SDS011;51601;51.356;12.458;2023-07-08T21:05:21;11.45;;;6.30;;
65033;SDS011;51601;51.356;12.458;2023-07-08T21:09:44;11.80;;;6.22;;
65033;SDS011;51601;51.356;12.458;2023-07-08T21:14:03;9.60;;;5.77;;
65033;SDS011;51601;51.356;12.458;2023-07-08T21:18:22;10.95;;;6.15;;
65033;SDS011;51601;51.356;12.458;2023-07-08T21:22:46;11.18;;;5.43;;
65033;SDS011;51601;51.356;12.458;2023-07-08T21:27:05;9.10;;;5.33;;
65033;SDS011;51601;51.356;12.458;2023-07-08T21:31:37;9.82;;;5.80;;
65033;SDS011;51601;51.356;12.458;2023-07-08T21:35:56;11.20;;;5.75;;
65033;SDS011;51601;51.356;12.458;2023-07-08T21:40:19;9.30;;;5.70;;
65033;SDS011;51601;51.356;12.458;2023-07-08T21:44:45;10.20;;;5.57;;
65033;SDS011;51601;51.356;12.458;2023-07-08T21:49:02;10.13;;;5.30;;
65033;SDS011;51601;51.356;12.458;2023-07-08T21:53:21;10.57;;;5.50;;
65033;SDS011;51601;51.356;12.458;2023-07-08T21:57:41;8.90;;;5.50;;
65033;SDS011;51601;51.356;12.458;2023-07-08T22:02:00;9.80;;;5.40;;
65033;SDS011;51601;51.356;12.458;2023-07-08T22:06:17;10.60;;;5.78;;
65033;SDS011;51601;51.356;12.458;2023-07-08T22:10:35;9.77;;;5.50;;
65033;SDS011;51601;51.356;12.458;2023-07-08T22:14:53;9.90;;;5.57;;
65033;SDS011;51601;51.356;12.458;2023-07-08T22:19:12;8.50;;;5.18;;
65033;SDS011;51601;51.356;12.458;2023-07-08T22:23:29;8.63;;;5.80;;
65033;SDS011;51601;51.356;12.458;2023-07-08T22:27:47;9.55;;;5.05;;
65033;SDS011;51601;51.356;12.458;2023-07-08T22:32:07;9.82;;;5.57;;
65033;SDS011;51601;51.356;12.458;2023-07-08T22:36:29;8.95;;;5.30;;
65033;SDS011;51601;51.356;12.458;2023-07-08T22:40:47;8.60;;;5.57;;
65033;SDS011;51601;51.356;12.458;2023-07-08T22:45:08;9.32;;;5.82;;
65033;SDS011;51601;51.356;12.458;2023-07-08T22:49:30;11.25;;;5.78;;
65033;SDS011;51601;51.356;12.458;2023-07-08T22:53:49;10.40;;;5.50;;
65033;SDS011;51601;51.356;12.458;2023-07-08T22:58:17;9.57;;;5.90;;
65033;SDS011;51601;51.356;12.458;2023-07-08T23:02:36;10.55;;;6.28;;
65033;SDS011;51601;51.356;12.458;2023-07-08T23:06:54;13.10;;;5.30;;
65033;SDS011;51601;51.356;12.458;2023-07-08T23:11:14;11.75;;;6.65;;
65033;SDS011;51601;51.356;12.458;2023-07-08T23:15:33;9.52;;;5.82;;
65033;SDS011;51601;51.356;12.458;2023-07-08T23:19:51;9.02;;;5.85;;
65033;SDS011;51601;51.356;12.458;2023-07-08T23:24:09;10.20;;;6.10;;
65033;SDS011;51601;51.356;12.458;2023-07-08T23:28:29;10.48;;;6.10;;
65033;SDS011;51601;51.356;12.458;2023-07-08T23:32:49;10.63;;;6.10;;
65033;SDS011;51601;51.356;12.458;2023-07-08T23:37:07;9.30;;;5.67;;
65033;SDS011;51601;51.356;12.458;2023-07-08T23:41:28;9.50;;;5.90;;
65033;SDS011;51601;51.356;12.458;2023-07-08T23:45:50;9.43;;;6.13;;
65033;SDS011;51601;51.356;12.458;2023-07-08T23:50:09;8.80;;;5.47;;
65033;SDS011;51601;51.356;12.458;2023-07-08T23:54:35;8.93;;;6.25;;
65033;SDS011;51601;51.356;12.458;2023-07-08T23:58:52;9.93;;;6.30;;
